createdAt,value
2018-04-30T04:09:51.866Z,7.90
2018-04-30T04:12:19.406Z,7.62
2018-04-30T04:14:46.933Z,7.75
2018-04-30T04:17:14.463Z,7.60
2018-04-30T04:19:42.008Z,7.55
2018-04-30T04:22:10.329Z,7.45
2018-04-30T04:24:37.894Z,7.47
2018-04-30T04:27:05.480Z,8.02
2018-04-30T04:29:33.038Z,7.80
2018-04-30T04:32:00.572Z,8.00
2018-04-30T04:34:28.134Z,8.90
2018-04-30T04:36:55.661Z,7.87
2018-04-30T04:39:23.188Z,9.38
2018-04-30T04:41:50.718Z,7.95
2018-04-30T04:44:18.302Z,8.38
2018-04-30T04:46:45.875Z,8.60
2018-04-30T06:34:46.645Z,7.50
2018-04-30T06:37:15.544Z,6.80
2018-04-30T06:39:44.451Z,7.25
2018-04-30T06:42:13.334Z,6.68
2018-04-30T06:44:42.241Z,8.55
2018-04-30T08:33:41.405Z,6.60
2018-04-30T08:36:10.309Z,5.93
2018-04-30T09:18:14.642Z,5.47
2018-04-30T09:20:43.550Z,5.30
2018-04-30T09:23:12.436Z,4.60
2018-04-30T09:30:38.314Z,4.73
2018-04-30T09:33:07.197Z,5.00
2018-04-30T09:35:36.109Z,4.63
2018-04-30T09:38:05.026Z,5.90
2018-04-30T10:12:44.686Z,6.87
2018-04-30T10:15:12.258Z,7.17
2018-04-30T10:17:39.801Z,6.70
2018-04-30T10:20:07.361Z,6.47
2018-04-30T10:22:34.902Z,6.40
2018-04-30T10:25:03.217Z,7.03
2018-04-30T10:29:57.855Z,3.70
2018-04-30T10:32:25.383Z,3.33
2018-04-30T10:34:52.922Z,3.67
2018-04-30T10:37:21.241Z,2.60
2018-04-30T10:39:48.779Z,2.60
2018-04-30T10:42:16.344Z,2.90
2018-04-30T10:44:43.886Z,2.30
2018-04-30T10:47:12.191Z,2.33
2018-04-30T10:49:39.750Z,2.50
2018-04-30T10:52:07.338Z,2.60
2018-04-30T10:54:34.883Z,2.13
2018-04-30T10:57:02.418Z,1.40
2018-04-30T10:59:29.951Z,1.70
2018-04-30T11:01:57.520Z,1.67
2018-04-30T11:04:25.107Z,1.40
2018-04-30T11:06:52.645Z,1.27
2018-04-30T11:09:20.205Z,1.10
2018-04-30T11:11:47.812Z,1.00
2018-04-30T11:14:15.366Z,1.08
2018-04-30T11:16:43.693Z,1.15
2018-04-30T11:19:11.252Z,2.12
2018-04-30T11:21:38.798Z,1.15
2018-04-30T11:24:06.368Z,1.37
2018-04-30T11:26:33.934Z,1.08
2018-04-30T11:29:01.486Z,1.40
2018-04-30T11:31:29.054Z,1.60
2018-04-30T11:38:50.838Z,1.08
2018-04-30T11:41:18.471Z,0.90
2018-04-30T11:43:46.038Z,1.15
2018-04-30T11:46:14.369Z,1.00
2018-04-30T11:48:41.964Z,1.75
2018-04-30T11:51:10.321Z,1.20
2018-04-30T11:53:37.914Z,1.20
2018-04-30T11:56:06.280Z,1.30
2018-04-30T11:58:33.862Z,1.27
2018-04-30T12:01:02.174Z,1.40
2018-04-30T12:03:29.754Z,1.02
2018-04-30T12:05:57.326Z,1.83
2018-04-30T12:08:24.902Z,1.10
2018-04-30T12:13:20.341Z,1.00
2018-04-30T12:15:47.923Z,1.67
2018-04-30T12:18:15.499Z,1.23
2018-04-30T12:20:43.840Z,1.10
2018-04-30T12:23:12.191Z,0.98
2018-04-30T12:30:34.817Z,3.10
2018-04-30T12:33:02.375Z,1.50
2018-04-30T12:35:29.917Z,1.45
2018-04-30T12:37:57.467Z,1.50
2018-04-30T12:40:25.778Z,0.90
2018-04-30T12:42:53.367Z,1.20
2018-04-30T12:45:20.933Z,1.02
2018-04-30T12:47:48.511Z,0.90
2018-04-30T12:50:16.073Z,1.20
2018-04-30T12:52:43.634Z,1.50
2018-04-30T12:57:38.331Z,1.62
2018-04-30T13:00:05.882Z,1.10
2018-04-30T13:02:33.460Z,1.20
2018-04-30T13:05:01.019Z,1.20
2018-04-30T13:07:28.561Z,1.15
2018-04-30T13:09:56.107Z,1.20
2018-04-30T13:12:24.423Z,1.92
2018-04-30T13:14:51.973Z,1.35
2018-04-30T13:17:19.528Z,0.95
2018-04-30T13:19:47.839Z,1.70
2018-04-30T13:22:15.372Z,2.05
2018-04-30T13:24:43.698Z,1.70
2018-04-30T13:27:11.310Z,3.10
2018-04-30T13:29:39.639Z,2.10
2018-04-30T13:32:07.187Z,1.50
2018-04-30T13:34:34.751Z,1.55
2018-04-30T13:37:02.310Z,2.53
2018-04-30T13:39:29.873Z,4.15
2018-04-30T13:41:57.418Z,6.05
2018-04-30T13:44:25.718Z,1.87
2018-04-30T13:46:53.265Z,1.45
2018-04-30T13:49:21.561Z,2.42
2018-04-30T13:51:49.113Z,7.10
2018-04-30T13:54:16.683Z,5.97
2018-04-30T13:56:44.222Z,3.87
2018-04-30T13:59:11.778Z,8.75
2018-04-30T14:01:39.323Z,10.90
2018-04-30T14:04:06.878Z,2.08
2018-04-30T14:06:34.415Z,1.17
2018-04-30T14:09:01.961Z,2.00
2018-04-30T14:11:30.253Z,3.60
2018-04-30T14:13:57.814Z,5.25
2018-04-30T14:16:25.418Z,0.70
2018-04-30T14:18:52.963Z,1.10
2018-04-30T14:21:20.983Z,1.27
2018-04-30T14:23:48.543Z,0.70
2018-04-30T14:26:16.072Z,0.80
2018-04-30T14:28:43.642Z,0.82
2018-04-30T14:31:11.243Z,0.73
2018-04-30T14:33:38.793Z,0.70
2018-04-30T14:36:06.334Z,0.80
2018-04-30T14:38:33.871Z,0.88
2018-04-30T14:41:01.445Z,0.93
2018-04-30T14:43:29.023Z,0.77
2018-04-30T14:45:56.571Z,0.80
2018-04-30T14:48:24.103Z,0.90
2018-04-30T14:50:52.430Z,1.40
2018-04-30T14:53:19.970Z,1.15
2018-04-30T14:55:47.506Z,5.40
2018-04-30T14:58:15.810Z,4.68
2018-04-30T15:00:43.344Z,3.62
2018-04-30T15:03:10.900Z,1.33
2018-04-30T15:05:38.446Z,2.00
2018-04-30T15:08:06.013Z,2.10
2018-04-30T15:10:33.566Z,2.10
2018-04-30T15:13:01.097Z,1.08
2018-04-30T15:15:28.666Z,1.40
2018-04-30T15:17:56.209Z,3.35
2018-04-30T15:20:24.532Z,1.50
2018-04-30T15:22:52.080Z,8.95
2018-04-30T15:27:46.765Z,6.20
2018-04-30T15:37:35.674Z,5.30
2018-04-30T15:40:03.275Z,12.23
2018-04-30T15:42:30.866Z,16.45
2018-04-30T15:44:58.431Z,8.32
2018-04-30T15:47:25.992Z,8.68
2018-04-30T15:49:53.536Z,10.48
2018-04-30T15:52:21.101Z,13.50
2018-04-30T15:54:48.671Z,7.50
2018-04-30T15:57:16.255Z,8.13
2018-04-30T15:59:43.826Z,11.50
2018-04-30T16:02:11.425Z,14.07
2018-04-30T16:04:38.973Z,8.45
2018-04-30T16:07:06.507Z,4.73
2018-04-30T16:09:34.066Z,5.60
2018-04-30T16:12:01.637Z,3.90
2018-04-30T16:14:29.184Z,2.92
2018-04-30T16:16:56.716Z,6.25
2018-04-30T16:19:25.013Z,2.10
2018-04-30T16:21:53.349Z,2.42
2018-04-30T16:24:20.925Z,3.10
2018-04-30T16:26:48.464Z,2.72
2018-04-30T16:29:16.011Z,6.20
2018-04-30T16:31:43.537Z,2.70
2018-04-30T16:34:11.885Z,2.78
2018-04-30T16:36:39.437Z,7.07
2018-04-30T16:39:06.988Z,7.97
2018-04-30T16:41:34.527Z,5.87
2018-04-30T16:44:02.844Z,5.40
2018-04-30T16:46:30.381Z,6.20
2018-04-30T16:48:57.948Z,3.70
2018-04-30T16:51:25.526Z,2.70
2018-04-30T16:53:53.071Z,3.70
2018-04-30T16:56:20.657Z,4.03
2018-04-30T16:58:48.223Z,7.78
2018-04-30T17:01:15.790Z,18.48
2018-04-30T17:03:43.350Z,15.25
2018-04-30T17:06:10.889Z,19.92
2018-04-30T17:08:38.417Z,43.55
2018-04-30T17:11:05.994Z,31.37
2018-04-30T17:13:34.331Z,9.10
2018-04-30T17:16:01.875Z,8.98
2018-04-30T17:18:29.426Z,7.62
2018-04-30T17:20:56.981Z,11.60
2018-04-30T17:23:25.321Z,102.75
2018-04-30T17:25:52.877Z,56.50
2018-04-30T17:28:20.419Z,21.23
2018-04-30T17:30:47.944Z,14.65
2018-04-30T17:33:15.500Z,18.60
2018-04-30T17:35:43.065Z,11.15
2018-04-30T17:38:10.606Z,13.52
2018-04-30T17:40:38.222Z,40.42
2018-04-30T17:43:05.783Z,23.77
2018-04-30T17:45:34.167Z,47.88
2018-04-30T17:48:01.715Z,31.27
2018-04-30T17:50:30.077Z,64.15
2018-04-30T17:52:57.703Z,115.78
2018-04-30T17:55:25.282Z,81.43
2018-04-30T17:57:52.827Z,50.65
2018-04-30T18:00:20.362Z,49.38
2018-04-30T18:02:48.670Z,53.50
2018-04-30T18:05:16.263Z,38.95
2018-04-30T18:07:43.826Z,34.92
2018-04-30T18:10:11.404Z,29.45
2018-04-30T18:12:38.980Z,36.78
2018-04-30T18:15:06.528Z,33.42
2018-04-30T18:17:34.071Z,34.63
2018-04-30T18:20:01.612Z,22.15
2018-04-30T18:22:29.456Z,27.52
2018-04-30T18:24:57.767Z,28.10
2018-04-30T18:27:25.308Z,35.00
2018-04-30T18:29:53.649Z,33.90
2018-04-30T18:32:21.198Z,32.92
2018-04-30T18:34:48.738Z,37.28
2018-04-30T18:37:16.301Z,36.28
2018-04-30T18:39:43.870Z,41.17
2018-04-30T18:42:11.473Z,45.78
2018-04-30T18:44:39.038Z,54.00
2018-04-30T18:47:06.608Z,43.05
2018-04-30T18:49:34.160Z,48.70
2018-04-30T18:52:01.712Z,53.90
2018-04-30T18:54:29.251Z,89.05
2018-04-30T18:56:56.799Z,98.62
2018-04-30T18:59:25.135Z,89.75
2018-04-30T19:01:52.735Z,128.38
2018-04-30T19:04:21.041Z,127.60
2018-04-30T19:06:48.586Z,150.87
2018-04-30T19:09:16.912Z,194.37
2018-04-30T19:11:44.463Z,170.93
2018-04-30T19:14:12.066Z,137.20
2018-04-30T19:16:39.610Z,134.82
2018-04-30T19:19:07.197Z,118.35
2018-04-30T19:21:34.794Z,122.05
2018-04-30T19:24:03.124Z,109.93
2018-04-30T19:26:30.698Z,115.45
2018-04-30T19:28:58.239Z,108.97
2018-04-30T19:31:25.783Z,110.85
2018-04-30T19:33:53.458Z,97.97
2018-04-30T19:36:20.972Z,106.60
2018-04-30T19:38:48.540Z,118.80
2018-04-30T19:41:16.100Z,120.07
2018-04-30T19:43:43.649Z,133.77
2018-04-30T19:46:11.222Z,97.43
2018-04-30T19:48:38.766Z,79.85
2018-04-30T19:51:06.420Z,134.60
2018-04-30T19:53:34.022Z,256.17
2018-04-30T19:56:01.563Z,465.77
2018-04-30T19:58:29.118Z,329.60
2018-04-30T20:00:56.688Z,338.60
2018-04-30T20:03:24.290Z,279.52
2018-04-30T20:05:51.838Z,315.10
2018-04-30T20:08:19.390Z,326.83
2018-04-30T20:10:46.950Z,266.88
2018-04-30T20:13:14.522Z,197.93
2018-04-30T20:15:42.825Z,165.32
2018-04-30T20:18:10.370Z,157.62
2018-04-30T20:20:37.918Z,136.12
2018-04-30T20:23:05.476Z,126.22
2018-04-30T20:25:33.050Z,135.07
2018-04-30T20:28:00.658Z,146.43
2018-04-30T20:30:28.994Z,147.85
2018-04-30T20:32:56.542Z,129.63
2018-04-30T20:35:24.102Z,123.35
2018-04-30T20:37:51.675Z,114.25
2018-04-30T20:40:19.217Z,107.20
2018-04-30T20:42:46.801Z,113.97
2018-04-30T20:45:14.370Z,118.72
2018-04-30T20:47:41.923Z,108.37
2018-04-30T20:50:09.466Z,112.75
2018-04-30T20:52:37.774Z,127.47
2018-04-30T20:55:05.308Z,123.78
2018-04-30T20:57:33.625Z,121.32
2018-04-30T21:00:01.286Z,111.95
2018-04-30T21:02:28.776Z,107.20
2018-04-30T21:04:56.347Z,121.68
2018-04-30T21:07:23.917Z,108.07
2018-04-30T21:09:51.466Z,141.37
2018-04-30T21:12:19.005Z,143.15
2018-04-30T21:14:46.551Z,162.10
2018-04-30T21:17:14.129Z,241.70
2018-04-30T21:19:41.668Z,410.10
2018-04-30T21:22:09.979Z,331.38
2018-04-30T21:24:37.552Z,321.70
2018-04-30T21:27:05.119Z,281.17
2018-04-30T21:29:32.685Z,271.30
2018-04-30T21:32:00.235Z,349.92
2018-04-30T21:34:27.807Z,379.20
2018-04-30T21:36:55.359Z,338.85
2018-04-30T21:39:22.903Z,258.05
2018-04-30T21:41:50.438Z,196.95
2018-04-30T21:44:18.007Z,166.85
2018-04-30T21:46:45.553Z,198.75
2018-04-30T21:49:13.145Z,208.87
2018-04-30T21:51:41.456Z,196.05
2018-04-30T21:54:09.012Z,173.38
2018-04-30T21:56:36.588Z,170.38
2018-04-30T21:59:04.160Z,188.98
2018-04-30T22:01:31.723Z,189.02
2018-04-30T22:03:59.298Z,167.25
2018-04-30T22:06:26.849Z,161.75
2018-04-30T22:08:54.394Z,146.32
2018-04-30T22:11:22.726Z,142.02
2018-04-30T22:13:50.279Z,138.43
2018-04-30T22:16:17.857Z,143.82
2018-04-30T22:18:45.432Z,159.68
2018-04-30T22:21:12.997Z,177.20
2018-04-30T22:23:40.594Z,210.73
2018-04-30T22:26:08.147Z,236.55
2018-04-30T22:28:36.455Z,233.63
2018-04-30T22:31:04.008Z,215.25
2018-04-30T22:33:31.581Z,199.00
2018-04-30T22:35:59.138Z,173.45
2018-04-30T22:38:26.702Z,147.82
2018-04-30T22:40:54.275Z,132.63
2018-04-30T22:43:21.833Z,146.70
2018-04-30T22:45:49.388Z,146.07
2018-04-30T22:48:16.935Z,169.70
2018-04-30T22:50:45.282Z,171.95
2018-04-30T22:53:12.845Z,165.93
2018-04-30T22:55:41.165Z,145.43
2018-04-30T22:58:09.501Z,140.25
2018-04-30T23:00:37.054Z,134.20
2018-04-30T23:03:04.626Z,140.43
2018-04-30T23:05:32.170Z,133.95
2018-04-30T23:07:59.704Z,130.20
2018-04-30T23:10:28.038Z,128.87
2018-04-30T23:12:55.589Z,133.75
2018-04-30T23:15:23.135Z,129.38
2018-04-30T23:17:50.708Z,129.57
2018-04-30T23:20:18.375Z,122.80
2018-04-30T23:22:45.994Z,128.45
2018-04-30T23:25:13.535Z,151.77
2018-04-30T23:27:41.085Z,164.48
2018-04-30T23:30:08.618Z,174.90
2018-04-30T23:32:36.172Z,188.50
2018-04-30T23:35:04.514Z,189.55
2018-04-30T23:37:32.076Z,214.12
2018-04-30T23:39:59.614Z,208.80
2018-04-30T23:42:27.163Z,216.25
2018-04-30T23:44:54.731Z,199.00
2018-04-30T23:47:22.282Z,194.23
2018-04-30T23:49:49.827Z,199.25
2018-04-30T23:52:18.135Z,172.62
2018-04-30T23:54:45.720Z,150.07
2018-04-30T23:57:13.267Z,149.25
2018-04-30T23:59:40.810Z,160.52
